Time;durP1;ratioP1;P1;durP2;ratioP2;P2;SDS_P1;SDS_P2;PMS_P1;PMS_P2;Temp;Humidity;BMP_temperature;BMP_pressure;BME280_temperature;BME280_humidity;BME280_pressure;Samples;Min_cycle;Max_cycle;Signal;HPM_P1;HPM_P2
2022/04/27 00:02:31;;;;;;;24.60;18.80;;;29.70;90.10;;;;;;1842025;76;21173;-81
2022/04/27 00:05:01;;;;;;;24.95;18.62;;;29.70;90.10;;;;;;1839749;78;21163;-82
2022/04/27 00:07:33;;;;;;;26.45;19.15;;;29.70;90.10;;;;;;1877065;75;21114;-83
2022/04/27 00:10:05;;;;;;;24.95;19.62;;;29.70;90.10;;;;;;1850472;76;21633;-82
2022/04/27 00:12:37;;;;;;;27.25;19.77;;;29.70;90.00;;;;;;1839162;77;21147;-83
2022/04/27 00:15:10;;;;;;;25.12;18.55;;;29.70;90.10;;;;;;1838985;77;21156;-81
2022/04/27 00:17:41;;;;;;;23.55;18.90;;;29.70;90.00;;;;;;1852589;76;21136;-82
2022/04/27 00:20:11;;;;;;;25.40;18.50;;;29.70;90.10;;;;;;1873364;75;21212;-82
2022/04/27 00:22:42;;;;;;;27.70;18.92;;;29.70;90.00;;;;;;1834585;78;21159;-82
2022/04/27 00:25:13;;;;;;;29.30;19.23;;;29.70;90.10;;;;;;1838665;78;21146;-82
2022/04/27 00:27:46;;;;;;;24.65;18.85;;;29.80;90.10;;;;;;1847230;76;21179;-81
2022/04/27 00:30:18;;;;;;;25.55;18.95;;;29.80;90.00;;;;;;1867784;76;21215;-83
2022/04/27 00:32:48;;;;;;;25.52;19.27;;;29.80;89.90;;;;;;1877911;75;21068;-82
2022/04/27 00:35:19;;;;;;;24.10;18.82;;;29.90;89.60;;;;;;1825829;77;21117;-82
2022/04/27 00:37:50;;;;;;;28.23;18.07;;;29.90;89.40;;;;;;1855853;76;21110;-83
2022/04/27 00:40:21;;;;;;;25.50;18.77;;;30.00;89.40;;;;;;1868959;75;21163;-82
2022/04/27 00:42:52;;;;;;;24.77;18.65;;;30.10;89.10;;;;;;1840911;77;21180;-82
2022/04/27 00:45:23;;;;;;;26.93;20.40;;;30.10;88.80;;;;;;1862564;76;21142;-82
2022/04/27 00:47:54;;;;;;;26.57;19.17;;;30.10;88.80;;;;;;1830215;77;21184;-81
2022/04/27 00:50:25;;;;;;;25.55;18.80;;;30.20;88.40;;;;;;1845424;78;21153;-82
2022/04/27 00:52:56;;;;;;;23.45;18.27;;;30.20;88.60;;;;;;1845933;76;21157;-81
2022/04/27 00:55:30;;;;;;;22.02;17.98;;;30.10;88.20;;;;;;1845789;76;21283;-81
2022/04/27 00:58:02;;;;;;;24.98;18.55;;;30.20;88.00;;;;;;1848479;76;21212;-79
2022/04/27 01:00:33;;;;;;;22.35;19.55;;;30.20;87.80;;;;;;1869792;76;21249;-82
2022/04/27 01:03:06;;;;;;;25.10;18.55;;;30.20;88.00;;;;;;1851453;76;21070;-80
2022/04/27 01:05:38;;;;;;;24.27;18.02;;;30.20;88.20;;;;;;1847490;77;21188;-83
2022/04/27 01:08:09;;;;;;;27.52;20.15;;;30.20;88.30;;;;;;1836929;76;21083;-85
2022/04/27 01:10:44;;;;;;;26.05;19.00;;;30.20;88.30;;;;;;1843817;76;21207;-82
2022/04/27 01:13:16;;;;;;;25.85;20.90;;;30.20;88.40;;;;;;1862480;76;21150;-82
2022/04/27 01:15:47;;;;;;;27.77;19.82;;;30.30;88.60;;;;;;1860078;76;21083;-83
2022/04/27 01:18:18;;;;;;;23.18;18.60;;;30.30;88.50;;;;;;1863286;77;21169;-82
2022/04/27 01:21:06;;;;;;;24.43;20.17;;;30.40;88.20;;;;;;1834007;77;21535;-84
2022/04/27 01:23:39;;;;;;;27.07;21.05;;;30.40;87.60;;;;;;1847694;77;21079;-72
2022/04/27 01:26:10;;;;;;;25.75;20.37;;;30.50;87.60;;;;;;1856390;76;21136;-71
2022/04/27 01:28:41;;;;;;;25.77;19.90;;;30.50;87.90;;;;;;1854258;76;21188;-72
2022/04/27 01:31:14;;;;;;;27.10;20.30;;;30.50;88.00;;;;;;1855728;76;21082;-72
2022/04/27 01:33:47;;;;;;;28.47;19.87;;;30.60;88.00;;;;;;1832710;77;21122;-71
2022/04/27 01:36:19;;;;;;;26.52;18.92;;;30.60;87.70;;;;;;1816460;77;21335;-72
2022/04/27 01:38:50;;;;;;;24.80;19.07;;;30.70;87.50;;;;;;1827279;77;21102;-72
2022/04/27 01:41:22;;;;;;;27.20;20.30;;;30.80;86.90;;;;;;1865036;76;21519;-71
2022/04/27 01:43:53;;;;;;;25.23;20.02;;;30.90;86.70;;;;;;1861130;75;21083;-72
2022/04/27 01:46:25;;;;;;;24.55;19.10;;;31.00;86.60;;;;;;1838154;77;21140;-72
2022/04/27 01:48:57;;;;;;;27.50;20.32;;;31.10;86.50;;;;;;1910559;74;22088;-72
2022/04/27 01:54:19;;;;;;;28.80;20.77;;;31.30;86.10;;;;;;1872415;76;21731;-72
2022/04/27 01:56:33;;;;;;;27.37;20.32;;;31.40;85.80;;;;;;1836794;77;21757;-71
2022/04/27 01:59:05;;;;;;;24.95;18.75;;;31.50;85.50;;;;;;1832702;77;21584;-73
2022/04/27 02:01:36;;;;;;;28.80;19.67;;;31.60;84.70;;;;;;1908053;74;21241;-73
2022/04/27 02:04:08;;;;;;;26.73;18.48;;;31.70;83.60;;;;;;1827221;78;21658;-72
2022/04/27 02:06:40;;;;;;;25.30;18.27;;;31.80;83.60;;;;;;1855234;77;21095;-72
2022/04/27 02:09:10;;;;;;;24.57;18.30;;;32.00;82.50;;;;;;1859657;76;21143;-71
2022/04/27 02:11:42;;;;;;;23.47;18.02;;;32.00;82.30;;;;;;1870045;76;21910;-72
2022/04/27 02:14:13;;;;;;;25.52;18.17;;;32.20;82.40;;;;;;1826746;77;21091;-72
2022/04/27 02:16:44;;;;;;;26.17;18.57;;;32.30;82.20;;;;;;1915610;74;21174;-72
2022/04/27 02:19:34;;;;;;;24.37;18.75;;;32.40;80.80;;;;;;1904779;74;21193;-71
2022/04/27 02:22:06;;;;;;;22.52;16.75;;;32.50;80.00;;;;;;1906917;74;21133;-71
2022/04/27 02:24:36;;;;;;;24.65;17.32;;;32.60;79.60;;;;;;1908382;74;21043;-71
2022/04/27 02:27:07;;;;;;;21.27;17.17;;;32.70;80.50;;;;;;1904915;74;21133;-72
2022/04/27 02:29:38;;;;;;;24.00;17.20;;;32.80;78.10;;;;;;1908052;74;21110;-71
2022/04/27 02:32:09;;;;;;;26.55;16.57;;;32.90;77.00;;;;;;1907873;74;21199;-72
2022/04/27 02:34:40;;;;;;;22.58;16.87;;;33.00;77.00;;;;;;1904103;74;21551;-72
2022/04/27 02:37:12;;;;;;;25.80;17.00;;;33.00;76.40;;;;;;1900824;74;21611;-71
2022/04/27 02:39:43;;;;;;;24.77;17.40;;;33.10;76.30;;;;;;1866208;76;21585;-71
2022/04/27 02:42:14;;;;;;;23.70;17.00;;;33.10;76.30;;;;;;1826445;78;21658;-70
2022/04/27 02:44:46;;;;;;;24.63;17.40;;;33.20;76.30;;;;;;1859807;77;21079;-72
2022/04/27 02:47:18;;;;;;;23.92;16.87;;;33.30;75.20;;;;;;1828080;77;21756;-72
2022/04/27 02:52:21;;;;;;;23.45;16.85;;;33.50;74.10;;;;;;1899958;74;21600;-72
2022/04/27 02:54:52;;;;;;;26.25;16.70;;;;;;;;;;1863501;76;21212;-73
2022/04/27 02:57:23;;;;;;;20.90;15.43;;;33.70;72.50;;;;;;1841699;77;21594;-74
2022/04/27 02:59:54;;;;;;;22.98;16.57;;;33.80;72.70;;;;;;1861541;76;22083;-73
2022/04/27 03:02:25;;;;;;;23.55;16.75;;;33.90;72.40;;;;;;1869932;76;21098;-74
2022/04/27 03:04:56;;;;;;;24.75;16.87;;;33.90;72.80;;;;;;1861949;76;21233;-74
2022/04/27 03:07:31;;;;;;;22.05;16.37;;;34.00;73.20;;;;;;1828173;77;21432;-72
2022/04/27 03:10:00;;;;;;;23.27;16.95;;;34.10;72.00;;;;;;1905439;74;21243;-73
2022/04/27 03:12:35;;;;;;;20.90;16.05;;;34.20;71.30;;;;;;1838273;77;21240;-71
2022/04/27 03:15:07;;;;;;;18.32;15.68;;;34.30;70.90;;;;;;1858966;76;21798;-72
2022/04/27 03:17:38;;;;;;;20.32;16.17;;;34.40;69.20;;;;;;1858393;76;21729;-71
2022/04/27 03:20:09;;;;;;;19.32;16.60;;;34.40;69.70;;;;;;1900384;74;21154;-72
2022/04/27 03:22:41;;;;;;;20.92;16.48;;;34.40;69.60;;;;;;1826718;77;21650;-71
2022/04/27 03:25:20;;;;;;;22.73;15.93;;;34.50;69.80;;;;;;1820747;77;21789;-70
2022/04/27 03:27:51;;;;;;;21.12;16.40;;;34.50;69.30;;;;;;1906660;74;21094;-71
2022/04/27 03:30:21;;;;;;;23.92;15.98;;;34.70;69.70;;;;;;1864848;76;21180;-71
2022/04/27 03:32:54;;;;;;;23.20;15.58;;;34.70;68.00;;;;;;1820918;77;21158;-70
2022/04/27 03:35:26;;;;;;;21.27;15.75;;;34.80;67.40;;;;;;1831548;77;21586;-70
2022/04/27 03:37:58;;;;;;;22.73;15.78;;;34.80;67.30;;;;;;1835247;77;21577;-71
2022/04/27 03:40:29;;;;;;;22.95;15.53;;;34.80;67.70;;;;;;1900517;74;21597;-71
2022/04/27 03:43:00;;;;;;;20.62;16.50;;;34.90;67.20;;;;;;1827936;77;21206;-70
2022/04/27 03:45:36;;;;;;;28.17;16.52;;;35.00;66.80;;;;;;1863926;76;21711;-73
2022/04/27 03:48:07;;;;;;;25.20;16.15;;;35.00;66.30;;;;;;1826664;77;21141;-71
2022/04/27 03:50:39;;;;;;;20.02;15.58;;;35.00;67.00;;;;;;1904986;74;21489;-71
2022/04/27 03:53:10;;;;;;;23.02;15.30;;;35.00;66.20;;;;;;1895046;74;21148;-70
2022/04/27 03:55:41;;;;;;;18.75;14.45;;;35.10;66.60;;;;;;1903572;74;21171;-72
2022/04/27 03:58:13;;;;;;;18.80;14.43;;;35.20;66.10;;;;;;1853929;76;21352;-71
2022/04/27 04:00:44;;;;;;;18.67;14.40;;;35.30;65.40;;;;;;1811461;77;21103;-70
2022/04/27 04:03:15;;;;;;;17.07;15.28;;;35.50;64.90;;;;;;1917128;74;21121;-71
2022/04/27 04:05:48;;;;;;;18.20;14.63;;;35.60;64.00;;;;;;1904892;74;21585;-71
2022/04/27 04:08:21;;;;;;;17.15;13.65;;;35.70;63.00;;;;;;1825677;77;21194;-69
2022/04/27 04:10:53;;;;;;;15.48;12.93;;;35.80;61.80;;;;;;1859609;76;21844;-70
2022/04/27 04:13:23;;;;;;;21.55;14.30;;;35.90;62.40;;;;;;1863794;76;21490;-70
2022/04/27 04:15:54;;;;;;;16.48;13.88;;;36.00;62.50;;;;;;1866837;76;21217;-70
2022/04/27 04:18:27;;;;;;;19.62;14.73;;;36.00;62.30;;;;;;1855533;76;21130;-70
2022/04/27 04:20:58;;;;;;;19.55;14.10;;;36.40;64.40;;;;;;1859566;76;21140;-71
2022/04/27 04:23:30;;;;;;;18.95;14.38;;;36.20;61.50;;;;;;1857781;76;21148;-71
2022/04/27 04:28:34;;;;;;;17.77;13.28;;;36.20;60.30;;;;;;1826689;78;21135;-71
2022/04/27 04:31:06;;;;;;;16.12;13.40;;;36.10;60.00;;;;;;1824204;78;21188;-70
2022/04/27 04:33:38;;;;;;;16.85;14.40;;;36.10;60.00;;;;;;1853683;76;22345;-71
2022/04/27 04:36:10;;;;;;;19.42;13.53;;;36.10;59.60;;;;;;1807470;78;21539;-71
2022/04/27 04:38:41;;;;;;;17.65;13.88;;;36.10;59.50;;;;;;1910188;74;21675;-72
2022/04/27 04:41:12;;;;;;;18.20;14.35;;;36.10;59.70;;;;;;1829518;77;21240;-71
2022/04/27 04:43:43;;;;;;;19.73;13.58;;;36.10;60.50;;;;;;1861390;75;21087;-71
2022/04/27 04:46:15;;;;;;;15.70;13.58;;;36.20;59.90;;;;;;1855932;77;21583;-71
2022/04/27 04:48:46;;;;;;;14.93;12.88;;;36.30;58.80;;;;;;1908183;74;21630;-72
2022/04/27 04:51:16;;;;;;;17.27;13.53;;;36.20;59.00;;;;;;1828362;77;21614;-70
2022/04/27 04:53:49;;;;;;;22.90;13.32;;;36.40;58.90;;;;;;1855725;76;21127;-70
2022/04/27 04:56:20;;;;;;;14.60;12.98;;;36.40;58.40;;;;;;1828135;77;21193;-71
2022/04/27 04:58:51;;;;;;;19.80;14.23;;;36.40;58.30;;;;;;1904789;74;21202;-70
2022/04/27 05:01:21;;;;;;;15.03;13.20;;;36.50;59.20;;;;;;1826544;77;21225;-71
2022/04/27 05:03:55;;;;;;;16.12;12.95;;;36.80;58.10;;;;;;1859687;76;21146;-71
2022/04/27 05:06:28;;;;;;;21.23;12.60;;;36.80;58.70;;;;;;1853824;76;21675;-70
2022/04/27 05:08:58;;;;;;;14.40;11.83;;;36.90;59.60;;;;;;1827767;78;21194;-71
2022/04/27 05:11:30;;;;;;;16.20;12.43;;;36.90;59.20;;;;;;1902128;75;21082;-70
2022/04/27 05:14:12;;;;;;;17.27;12.58;;;37.00;59.60;;;;;;1804379;77;21131;-71
2022/04/27 05:16:43;;;;;;;18.42;12.18;;;36.80;60.00;;;;;;1856339;76;21094;-71
2022/04/27 05:19:15;;;;;;;13.00;11.60;;;36.80;59.20;;;;;;1828144;78;21248;-70
2022/04/27 05:21:45;;;;;;;14.20;11.68;;;36.80;59.70;;;;;;1901628;75;21635;-71
2022/04/27 05:24:17;;;;;;;18.12;12.98;;;36.90;59.70;;;;;;1826287;77;21195;-71
2022/04/27 05:26:48;;;;;;;15.50;13.03;;;37.00;59.40;;;;;;1816474;77;21173;-70
2022/04/27 05:31:54;;;;;;;16.45;11.63;;;37.00;59.90;;;;;;1856296;76;21568;-70
2022/04/27 05:34:30;;;;;;;16.60;12.43;;;37.20;57.60;;;;;;1827399;77;21173;-70
2022/04/27 05:37:01;;;;;;;17.37;11.93;;;37.10;58.70;;;;;;1901847;74;21648;-71
2022/04/27 05:39:33;;;;;;;16.37;12.13;;;37.20;57.30;;;;;;1903109;74;21522;-71
2022/04/27 05:42:05;;;;;;;15.13;11.95;;;37.40;56.70;;;;;;1916616;74;21093;-71
2022/04/27 05:44:36;;;;;;;15.13;12.10;;;37.40;56.20;;;;;;1902605;74;21179;-70
2022/04/27 05:47:07;;;;;;;18.60;12.30;;;37.40;56.90;;;;;;1898493;74;21129;-71
2022/04/27 05:49:38;;;;;;;17.90;13.40;;;37.40;56.10;;;;;;1903138;74;21074;-71
2022/04/27 05:52:10;;;;;;;15.78;12.07;;;37.40;56.10;;;;;;1896188;75;21082;-86
2022/04/27 05:54:40;;;;;;;16.02;11.55;;;37.40;54.80;;;;;;1897018;75;21531;-86
2022/04/27 05:57:11;;;;;;;15.98;12.63;;;37.40;55.40;;;;;;1823202;77;21091;-84
2022/04/27 05:59:43;;;;;;;17.35;11.90;;;37.40;54.90;;;;;;1840356;78;21164;-87
2022/04/27 06:02:15;;;;;;;18.80;13.15;;;37.50;54.80;;;;;;1818586;78;21117;-86
2022/04/27 06:04:46;;;;;;;13.18;11.73;;;37.50;55.30;;;;;;1821203;78;21142;-87
2022/04/27 06:07:17;;;;;;;20.02;12.70;;;37.50;55.40;;;;;;1825730;77;21130;-87
2022/04/27 06:09:48;;;;;;;17.52;11.97;;;37.50;55.00;;;;;;1825482;78;21610;-85
2022/04/27 06:12:18;;;;;;;15.65;11.45;;;37.50;54.80;;;;;;1827525;77;21216;-70
2022/04/27 06:14:51;;;;;;;18.20;11.73;;;37.50;54.20;;;;;;1825734;77;21130;-70
2022/04/27 06:17:22;;;;;;;16.62;12.03;;;37.60;54.20;;;;;;1839458;77;21094;-69
2022/04/27 06:19:53;;;;;;;13.53;11.63;;;37.50;54.30;;;;;;1827809;78;21193;-70
2022/04/27 06:22:27;;;;;;;14.47;10.63;;;37.60;54.50;;;;;;1823299;77;21154;-70
2022/04/27 06:24:58;;;;;;;13.38;11.83;;;37.50;54.40;;;;;;1826605;77;21438;-70
2022/04/27 06:27:32;;;;;;;16.02;11.05;;;37.50;53.70;;;;;;1826153;77;21206;-70
2022/04/27 06:30:03;;;;;;;13.15;11.60;;;37.40;53.80;;;;;;1825747;78;21177;-69
2022/04/27 06:32:36;;;;;;;14.85;11.55;;;37.40;53.50;;;;;;1830132;77;21118;-70
2022/04/27 06:35:09;;;;;;;15.83;11.30;;;37.30;53.90;;;;;;1822728;77;21196;-71
2022/04/27 06:37:41;;;;;;;15.53;11.20;;;37.40;53.60;;;;;;1831479;77;21200;-70
2022/04/27 06:40:12;;;;;;;12.80;11.38;;;37.30;53.90;;;;;;1869734;77;21066;-71
2022/04/27 06:42:44;;;;;;;17.25;11.08;;;37.30;54.00;;;;;;1868947;77;21267;-71
2022/04/27 06:45:15;;;;;;;13.90;11.12;;;37.30;54.50;;;;;;1844307;76;21268;-70
2022/04/27 06:47:46;;;;;;;17.17;12.00;;;37.40;53.90;;;;;;1835661;77;21153;-70
2022/04/27 06:50:17;;;;;;;16.97;11.45;;;37.40;53.70;;;;;;1849182;76;21107;-70
2022/04/27 06:52:49;;;;;;;15.13;11.45;;;37.40;53.70;;;;;;1824439;77;21099;-70
2022/04/27 06:55:22;;;;;;;15.65;11.43;;;37.30;53.80;;;;;;1840033;76;21101;-70
2022/04/27 06:57:54;;;;;;;14.68;11.10;;;37.40;53.10;;;;;;1841025;77;21082;-71
2022/04/27 07:00:26;;;;;;;15.35;11.38;;;37.30;53.00;;;;;;1844973;77;21602;-70
2022/04/27 07:03:16;;;;;;;14.23;10.90;;;37.40;53.50;;;;;;1841609;76;21236;-70
2022/04/27 07:05:48;;;;;;;14.93;10.72;;;37.40;52.90;;;;;;1864777;76;21222;-70
2022/04/27 07:08:19;;;;;;;16.40;11.43;;;37.40;53.10;;;;;;1840683;77;21089;-71
2022/04/27 07:10:50;;;;;;;13.50;10.35;;;37.40;53.60;;;;;;1831748;77;21138;-71
2022/04/27 07:13:21;;;;;;;12.30;10.98;;;37.50;53.30;;;;;;1914798;74;21128;-70
2022/04/27 07:15:58;;;;;;;14.75;11.48;;;37.40;53.20;;;;;;1831797;77;21239;-70
2022/04/27 07:18:25;;;;;;;18.90;12.47;;;37.50;53.10;;;;;;1861734;76;21081;-69
2022/04/27 07:20:57;;;;;;;15.43;11.35;;;37.50;53.10;;;;;;1859309;76;21143;-69
2022/04/27 07:23:30;;;;;;;16.35;10.90;;;37.60;52.40;;;;;;1859313;76;21611;-69
2022/04/27 07:26:04;;;;;;;16.77;11.57;;;37.70;52.50;;;;;;1868785;76;21050;-71
2022/04/27 07:28:37;;;;;;;12.90;11.40;;;37.70;52.80;;;;;;1860381;76;21098;-70
2022/04/27 07:31:09;;;;;;;15.28;11.73;;;37.70;52.20;;;;;;1869364;76;21102;-70
2022/04/27 07:33:40;;;;;;;14.30;10.60;;;37.70;52.30;;;;;;1839488;77;21223;-71
2022/04/27 07:36:11;;;;;;;13.98;10.93;;;37.70;52.10;;;;;;1862554;76;21640;-70
2022/04/27 07:38:42;;;;;;;15.70;12.00;;;37.70;51.70;;;;;;1859275;76;21157;-71
2022/04/27 07:41:13;;;;;;;16.65;11.55;;;37.70;53.20;;;;;;1823016;78;21722;-71
2022/04/27 07:43:46;;;;;;;16.73;11.70;;;37.70;52.20;;;;;;1823882;77;21227;-71
2022/04/27 07:46:17;;;;;;;22.13;11.97;;;37.70;52.80;;;;;;1901777;74;21142;-72
2022/04/27 07:48:51;;;;;;;12.98;11.00;;;37.80;52.00;;;;;;1898914;74;21629;-68
2022/04/27 07:51:20;;;;;;;12.82;10.82;;;37.70;51.80;;;;;;1864568;76;21103;-71
2022/04/27 07:53:52;;;;;;;12.53;10.75;;;37.70;51.70;;;;;;1862646;76;21197;-71
2022/04/27 07:56:23;;;;;;;13.28;10.60;;;37.70;52.00;;;;;;1856788;76;21153;-70
2022/04/27 07:58:54;;;;;;;16.17;11.50;;;37.70;52.30;;;;;;1855997;76;21164;-71
2022/04/27 08:01:32;;;;;;;17.87;12.18;;;37.80;51.90;;;;;;1860362;76;21083;-74
2022/04/27 08:04:03;;;;;;;14.18;11.20;;;37.70;51.60;;;;;;1872487;76;21091;-70
2022/04/27 08:06:36;;;;;;;14.43;11.90;;;37.70;51.90;;;;;;1869321;76;21175;-70
2022/04/27 08:09:07;;;;;;;17.17;13.55;;;37.70;52.00;;;;;;1864867;76;21691;-70
2022/04/27 08:11:41;;;;;;;20.43;11.60;;;37.60;51.90;;;;;;1865753;76;21633;-71
2022/04/27 08:14:10;;;;;;;16.32;11.80;;;37.60;51.90;;;;;;1855783;76;21297;-73
2022/04/27 08:16:42;;;;;;;15.08;12.55;;;37.70;52.00;;;;;;1871527;76;21623;-72
2022/04/27 08:19:13;;;;;;;15.95;12.40;;;37.70;51.90;;;;;;1861083;76;21104;-72
2022/04/27 08:21:45;;;;;;;16.60;13.28;;;37.70;53.00;;;;;;1864471;76;21535;-71
2022/04/27 08:24:19;;;;;;;15.28;12.55;;;37.70;52.60;;;;;;1863172;76;21144;-72
2022/04/27 08:26:50;;;;;;;15.05;12.58;;;37.70;52.60;;;;;;1849183;76;21555;-69
2022/04/27 08:29:39;;;;;;;17.50;13.25;;;37.80;52.30;;;;;;1842288;76;21255;-72
2022/04/27 08:32:11;;;;;;;16.55;12.05;;;37.80;52.60;;;;;;1847479;76;21131;-71
2022/04/27 08:34:41;;;;;;;15.68;12.68;;;37.80;52.10;;;;;;1845012;76;21145;-71
2022/04/27 08:37:12;;;;;;;16.93;12.20;;;37.80;51.70;;;;;;1840537;76;21083;-71
2022/04/27 08:39:43;;;;;;;15.20;12.25;;;37.80;52.30;;;;;;1841778;76;21165;-71
2022/04/27 08:42:14;;;;;;;15.53;12.30;;;37.70;52.20;;;;;;1855269;76;21216;-71
2022/04/27 08:44:45;;;;;;;14.23;12.20;;;37.60;52.30;;;;;;1850438;76;21168;-71
2022/04/27 08:47:16;;;;;;;20.90;13.95;;;37.60;52.20;;;;;;1835360;75;21591;-72
2022/04/27 08:49:47;;;;;;;15.05;12.65;;;37.50;52.30;;;;;;1820110;77;21123;-71
2022/04/27 08:52:19;;;;;;;15.20;12.43;;;37.40;53.20;;;;;;1824125;77;21320;-71
2022/04/27 08:54:51;;;;;;;17.07;12.35;;;37.30;53.20;;;;;;1788366;79;21254;-71
2022/04/27 08:57:21;;;;;;;15.43;12.43;;;37.30;53.30;;;;;;1820297;78;21158;-71
2022/04/27 08:59:52;;;;;;;15.75;11.83;;;37.40;52.70;;;;;;1831622;77;21155;-71
2022/04/27 09:02:26;;;;;;;14.75;12.33;;;37.30;52.40;;;;;;1827296;77;21279;-71
2022/04/27 09:04:59;;;;;;;15.63;12.98;;;37.30;52.70;;;;;;1788792;79;21738;-70
2022/04/27 09:07:33;;;;;;;17.73;13.62;;;37.30;52.90;;;;;;1779108;79;21688;-69
2022/04/27 09:10:05;;;;;;;19.35;13.72;;;37.30;53.70;;;;;;1787753;79;21190;-70
2022/04/27 09:12:40;;;;;;;19.77;14.35;;;37.40;52.60;;;;;;1826837;77;21156;-71
2022/04/27 09:15:12;;;;;;;17.23;12.60;;;37.40;52.80;;;;;;1828469;77;21101;-70
2022/04/27 09:22:51;;;;;;;16.20;12.58;;;37.40;52.20;;;;;;1819183;77;21103;-71
2022/04/27 09:25:24;;;;;;;16.23;13.00;;;37.40;52.50;;;;;;1826995;77;21099;-71
2022/04/27 09:27:57;;;;;;;25.52;18.20;;;37.40;52.80;;;;;;1790388;79;21208;-71
2022/04/27 09:30:29;;;;;;;19.17;14.55;;;37.40;53.20;;;;;;1798179;79;21223;-71
2022/04/27 09:33:00;;;;;;;17.75;14.63;;;37.30;53.00;;;;;;1815774;77;21176;-71
2022/04/27 09:35:34;;;;;;;26.33;18.10;;;37.30;52.70;;;;;;1790852;79;21162;-71
2022/04/27 09:38:07;;;;;;;20.72;14.55;;;37.30;52.90;;;;;;1787173;79;21693;-71
2022/04/27 09:40:41;;;;;;;15.48;11.90;;;37.30;53.60;;;;;;1790771;79;21088;-71
2022/04/27 09:43:13;;;;;;;19.65;12.93;;;37.20;53.80;;;;;;1829736;77;21536;-70
2022/04/27 09:45:46;;;;;;;17.60;11.60;;;37.10;54.20;;;;;;1790620;79;21306;-70
2022/04/27 09:48:19;;;;;;;18.02;12.30;;;37.00;53.30;;;;;;1833955;76;21212;-70
2022/04/27 09:50:55;;;;;;;15.55;12.95;;;36.90;52.60;;;;;;1841426;76;21562;-71
2022/04/27 09:53:24;;;;;;;17.52;13.03;;;36.70;52.40;;;;;;1825282;77;21685;-71
2022/04/27 09:55:59;;;;;;;17.52;11.85;;;36.50;53.00;;;;;;1823174;77;21662;-70
2022/04/27 09:58:30;;;;;;;21.02;12.20;;;36.40;53.60;;;;;;1818951;77;21135;-71
2022/04/27 10:01:04;;;;;;;20.10;12.25;;;36.30;55.10;;;;;;1827800;77;21252;-71
2022/04/27 10:03:37;;;;;;;20.50;12.45;;;36.20;55.70;;;;;;1856787;76;21143;-71
2022/04/27 10:06:11;;;;;;;20.02;13.60;;;36.10;56.20;;;;;;1847232;76;21170;-85
2022/04/27 10:08:43;;;;;;;22.13;13.50;;;36.00;60.00;;;;;;1846208;76;21184;-86
2022/04/27 10:11:15;;;;;;;20.15;13.78;;;35.80;62.60;;;;;;1848525;76;21161;-83
2022/04/27 10:13:46;;;;;;;17.10;12.80;;;35.40;65.40;;;;;;1851595;76;21160;-84
2022/04/27 10:16:18;;;;;;;19.92;14.10;;;35.10;65.00;;;;;;1847349;76;21156;-84
2022/04/27 10:18:50;;;;;;;14.23;12.37;;;34.50;70.20;;;;;;1845355;76;21209;-82
2022/04/27 10:21:27;;;;;;;15.53;12.28;;;34.10;71.40;;;;;;1862041;76;21160;-84
2022/04/27 10:23:58;;;;;;;19.27;13.30;;;33.80;69.00;;;;;;1828019;77;21112;-83
2022/04/27 10:26:30;;;;;;;18.80;13.50;;;33.60;72.40;;;;;;1848242;76;21176;-83
2022/04/27 10:29:05;;;;;;;17.40;12.95;;;33.40;73.80;;;;;;1855773;76;21148;-83
2022/04/27 10:31:38;;;;;;;17.00;12.63;;;33.30;76.90;;;;;;1859227;76;21169;-82
2022/04/27 10:34:12;;;;;;;17.55;12.73;;;33.10;77.40;;;;;;1859160;76;21123;-83
2022/04/27 10:36:43;;;;;;;19.80;13.85;;;33.10;78.30;;;;;;1855669;76;21084;-83
2022/04/27 10:39:17;;;;;;;20.02;14.43;;;33.00;82.50;;;;;;1866160;76;21162;-82
2022/04/27 10:41:51;;;;;;;27.98;15.08;;;33.00;78.50;;;;;;1869526;76;21091;-82
2022/04/27 10:44:28;;;;;;;20.95;14.63;;;32.90;79.30;;;;;;1872481;76;21177;-83
2022/04/27 10:47:20;;;;;;;22.62;17.23;;;32.80;79.40;;;;;;1859255;76;21247;-83
2022/04/27 10:49:53;;;;;;;23.50;16.93;;;32.80;85.20;;;;;;1875350;74;21141;-82
2022/04/27 10:52:25;;;;;;;21.65;15.55;;;32.80;85.10;;;;;;1836145;77;21083;-83
2022/04/27 10:54:56;;;;;;;24.55;15.70;;;32.80;84.90;;;;;;1830773;77;21186;-82
2022/04/27 10:57:30;;;;;;;19.62;15.85;;;32.80;82.30;;;;;;1824880;77;21099;-83
2022/04/27 11:00:03;;;;;;;26.68;16.37;;;33.00;84.30;;;;;;1864712;76;21115;-83
2022/04/27 11:02:38;;;;;;;20.57;17.35;;;33.00;84.90;;;;;;1861016;75;21357;-83
2022/04/27 11:05:11;;;;;;;18.37;16.48;;;33.10;86.00;;;;;;1826526;77;21203;-82
2022/04/27 11:07:45;;;;;;;19.70;16.60;;;33.10;88.00;;;;;;1823662;77;21152;-83
2022/04/27 11:10:18;;;;;;;24.63;16.80;;;33.00;87.00;;;;;;1823147;77;21107;-83
2022/04/27 11:12:51;;;;;;;19.65;17.25;;;33.00;86.30;;;;;;1852929;76;21662;-82
2022/04/27 11:15:25;;;;;;;29.20;18.65;;;33.00;86.90;;;;;;1899879;74;21199;-81
2022/04/27 11:18:01;;;;;;;22.95;18.42;;;33.00;86.90;;;;;;1830282;77;21143;-84
2022/04/27 11:20:33;;;;;;;24.23;17.00;;;33.00;87.20;;;;;;1829346;77;21504;-83
2022/04/27 11:23:10;;;;;;;28.77;17.70;;;33.10;86.20;;;;;;1900460;74;21177;-82
2022/04/27 11:25:40;;;;;;;26.37;16.80;;;33.00;84.90;;;;;;1826649;77;21072;-82
2022/04/27 11:28:12;;;;;;;19.87;15.45;;;33.10;84.90;;;;;;1828182;77;21213;-83
2022/04/27 11:30:43;;;;;;;27.20;16.90;;;33.20;84.20;;;;;;1901441;74;21059;-82
2022/04/27 11:33:17;;;;;;;26.00;17.65;;;33.20;83.60;;;;;;1828736;77;21209;-83
2022/04/27 11:35:49;;;;;;;26.87;17.90;;;33.20;83.60;;;;;;1857314;76;21224;-83
2022/04/27 11:38:21;;;;;;;23.18;17.48;;;33.20;84.10;;;;;;1828301;77;21174;-83
2022/04/27 11:40:53;;;;;;;24.98;18.30;;;33.30;84.30;;;;;;1915855;74;21140;-83
2022/04/27 11:43:27;;;;;;;24.75;18.25;;;33.10;82.50;;;;;;1839131;77;21100;-83
2022/04/27 11:45:58;;;;;;;27.45;18.27;;;33.20;82.80;;;;;;1827035;77;21104;-83
2022/04/27 11:48:31;;;;;;;26.23;18.45;;;33.00;82.50;;;;;;1902619;74;21094;-83
2022/04/27 11:51:03;;;;;;;31.30;19.57;;;33.00;82.30;;;;;;1837081;77;21190;-83
2022/04/27 11:53:36;;;;;;;25.25;18.15;;;33.00;84.10;;;;;;1844240;77;21063;-83
2022/04/27 11:56:09;;;;;;;22.15;18.92;;;33.00;84.70;;;;;;1840842;77;21063;-82
2022/04/27 11:58:40;;;;;;;25.23;18.45;;;32.90;83.70;;;;;;1842681;76;21193;-83
2022/04/27 12:01:15;;;;;;;27.30;18.55;;;33.00;84.10;;;;;;1858208;76;21142;-82
2022/04/27 12:03:49;;;;;;;29.42;18.90;;;33.00;84.50;;;;;;1840655;77;21216;-83
2022/04/27 12:06:21;;;;;;;27.73;18.57;;;33.00;84.80;;;;;;1840405;77;21142;-84
2022/04/27 12:08:53;;;;;;;26.48;18.73;;;33.10;84.90;;;;;;1846048;76;21675;-83
2022/04/27 12:11:25;;;;;;;31.80;18.62;;;33.00;84.50;;;;;;1846977;76;21083;-84
2022/04/27 12:13:56;;;;;;;32.65;19.42;;;33.00;84.50;;;;;;1844647;78;21089;-84
2022/04/27 12:16:30;;;;;;;26.82;20.12;;;32.90;83.20;;;;;;1842435;78;21098;-84
2022/04/27 12:19:01;;;;;;;28.60;20.30;;;32.90;83.20;;;;;;1840353;77;21141;-83
2022/04/27 12:21:32;;;;;;;28.20;19.70;;;33.00;84.10;;;;;;1841747;76;21100;-83
2022/04/27 12:24:09;;;;;;;24.63;20.30;;;33.00;84.60;;;;;;1859713;76;21063;-83
2022/04/27 12:26:41;;;;;;;26.27;20.12;;;33.00;85.70;;;;;;1843114;76;21129;-84
2022/04/27 12:29:12;;;;;;;22.85;19.75;;;33.00;85.60;;;;;;1841324;78;21616;-84
2022/04/27 12:31:44;;;;;;;26.23;19.80;;;33.00;85.80;;;;;;1843630;76;21198;-82
2022/04/27 12:39:24;;;;;;;34.98;18.95;;;33.00;84.00;;;;;;1843168;76;21103;-83
2022/04/27 12:41:57;;;;;;;23.73;18.90;;;33.10;83.20;;;;;;1859181;76;21710;-83
2022/04/27 12:44:35;;;;;;;29.37;18.23;;;33.00;83.50;;;;;;1847092;76;21074;-83
2022/04/27 12:47:04;;;;;;;22.50;18.62;;;33.10;83.00;;;;;;1840917;76;21071;-85
2022/04/27 12:49:38;;;;;;;26.73;18.65;;;33.10;82.70;;;;;;1840283;76;21110;-82
2022/04/27 12:52:14;;;;;;;27.62;18.20;;;33.20;82.30;;;;;;1843223;76;21559;-84
2022/04/27 12:54:47;;;;;;;27.48;18.40;;;33.20;81.80;;;;;;1857320;76;21676;-82
2022/04/27 12:57:18;;;;;;;30.30;18.65;;;33.00;82.40;;;;;;1844843;76;21079;-82
2022/04/27 12:59:52;;;;;;;25.70;17.90;;;33.10;82.00;;;;;;1840131;77;21066;-83
2022/04/27 13:02:23;;;;;;;23.12;18.35;;;33.10;82.20;;;;;;1844160;76;21075;-82
2022/04/27 13:04:56;;;;;;;30.20;20.80;;;33.10;80.90;;;;;;1843552;76;21537;-83
2022/04/27 13:07:30;;;;;;;29.75;20.02;;;33.00;82.80;;;;;;1849012;76;21166;-82
2022/04/27 13:12:36;;;;;;;30.27;21.10;;;33.10;82.30;;;;;;1842039;77;21095;-82
2022/04/27 13:15:11;;;;;;;29.35;23.60;;;33.10;83.00;;;;;;1842454;76;21615;-82
2022/04/27 13:17:43;;;;;;;27.37;20.88;;;33.00;84.10;;;;;;1841828;78;21092;-82